M I D A S
Marine Information and Data Acquisition System
Tripno 1308 of the Zeeleeuw from 2007-05-22 11:38:09 to 2007-05-22 13:01:26
Back to CruiseResearch ActivitiesStationsMapUnderway DataData graphs

EquipmentUnitsComment
TimeDGPSUTC
LatitudeDGPSDM.mWGS84
LongitudeDGPSDM.mWGS84
TemperatureSBE03/SBE38deg celciusITS90
ConductivitySBE21S/mITS90
SalinitySBE21 Practical Salinity Units
ChlorophylAChelsea fluorimeterg/lCalibrated in Aceton
Missing or incorrect values are displayed as -999
Sea surface data collected by the RV Zeeleeuw from 2007-05-22 07:30:53 to 2007-05-22 13:35:04
Time Latitude Longitude Temperature Conductivity Salinity ChlorophylA
2007-05-22 07:31:58 51°13.613 2°56.05 18.5123 0.01384 0.075053 -2.871232
2007-05-22 07:32:58 51°13.651 2°55.927 18.564 0.01384 0.075056 -2.871232
2007-05-22 07:33:58 51°13.683 2°55.821 18.5499 0.01384 0.07506 -2.871232
2007-05-22 07:34:58 51°13.695 2°55.742 18.5644 0.01384 0.075062 -2.871232
2007-05-22 07:35:58 51°13.698 2°55.71 18.627 0.01384 0.075063 -2.871232
2007-05-22 07:36:58 51°13.731 2°55.725 18.5851 0.01384 0.075066 -2.871232
2007-05-22 07:37:58 51°13.816 2°55.661 18.4818 0.01384 0.075067 -2.871232
2007-05-22 07:38:58 51°13.964 2°55.542 18.4746 0.01384 0.075068 -2.871232
2007-05-22 07:39:58 51°14.085 2°55.454 18.5707 0.01384 0.075074 -2.871232
2007-05-22 07:40:58 51°14.195 2°55.376 18.5807 0.01384 0.07508 -2.871232
2007-05-22 07:41:58 51°14.324 2°55.179 18.5384 0.01384 0.075088 -2.871232
2007-05-22 07:42:58 51°14.41 2°54.89 18.5231 0.01384 0.075098 -2.871232
2007-05-22 07:43:58 51°14.452 2°54.543 18.4548 0.01384 0.075109 -2.871232
2007-05-22 07:44:58 51°14.444 2°54.192 18.3666 0.01384 0.075121 -2.871232
2007-05-22 07:45:58 51°14.325 2°53.886 18.4209 0.01384 0.075132 -2.871232
2007-05-22 07:46:58 51°14.197 2°53.585 14.8258 3.79235 27.470836 -2.871232
2007-05-22 07:47:58 51°14.071 2°53.284 14.6241 4.071855 31.501888 -2.871232
2007-05-22 07:48:58 51°13.95 2°52.976 14.5501 4.078702 31.743481 -2.871232
2007-05-22 07:49:58 51°13.828 2°52.669 14.559 4.084407 31.857291 -2.871232
2007-05-22 07:50:58 51°13.705 2°52.363 14.5766 4.087829 31.892078 -2.871232
2007-05-22 07:51:58 51°13.585 2°52.055 14.5708 4.089799 31.894883 -2.871232
2007-05-22 07:52:58 51°13.463 2°51.748 14.5771 4.044069 31.503154 -2.871232
2007-05-22 07:53:58 51°13.341 2°51.44 14.553 4.091355 31.91415 -2.871232
2007-05-22 07:54:58 51°13.221 2°51.13 14.5055 4.099237 32.012228 -2.871232
2007-05-22 07:55:58 51°13.099 2°50.821 14.4393 4.104008 32.10218 -2.871232
2007-05-22 07:56:58 51°12.978 2°50.511 14.5214 4.104423 32.12245 -2.871232
2007-05-22 07:57:58 51°12.856 2°50.199 14.5384 4.105459 32.078706 -2.871232
2007-05-22 07:58:58 51°12.735 2°49.886 14.5295 4.107222 32.089018 -2.871232
2007-05-22 07:59:58 51°12.614 2°49.571 14.544 4.108674 32.104562 -2.871232
2007-05-22 08:00:58 51°12.491 2°49.26 14.5397 4.111059 32.123186 -2.871232
2007-05-22 08:01:58 51°12.369 2°48.945 14.5276 4.114585 32.157544 -2.871232
2007-05-22 08:02:58 51°12.264 2°48.653 14.518 4.115519 32.174373 -2.871232
2007-05-22 08:03:58 51°12.156 2°48.602 14.5074 4.115623 32.1963 -2.871232
2007-05-22 08:04:58 51°12.171 2°48.718 14.4946 4.118112 32.226013 -2.871232
2007-05-22 08:05:58 51°12.3 2°48.887 14.5334 4.114897 32.185613 -2.871232
2007-05-22 08:06:58 51°12.436 2°49.118 14.5257 4.115104 32.167134 -2.871232
2007-05-22 08:07:58 51°12.573 2°49.357 14.4967 4.115104 32.172928 -2.871232
2007-05-22 08:08:58 51°12.709 2°49.599 14.5265 4.113756 32.180008 -2.871232
2007-05-22 08:09:58 51°12.843 2°49.841 14.5305 4.111267 32.135843 -2.871232
2007-05-22 08:10:58 51°12.973 2°50.093 14.5194 4.109607 32.124267 -2.871232
2007-05-22 08:11:58 51°13.103 2°50.344 14.4836 4.111371 32.154846 -2.871232
2007-05-22 08:12:58 51°13.204 2°50.622 14.3775 4.110542 32.186037 -2.871232
2007-05-22 08:13:58 51°13.303 2°50.902 14.3493 4.09841 32.162052 -2.871232
2007-05-22 08:14:58 51°13.41 2°51.175 14.3563 4.095402 32.150271 -2.871232
2007-05-22 08:15:58 51°13.522 2°51.444 14.473 4.095195 32.122287 -2.871232
2007-05-22 08:16:58 51°13.625 2°51.723 14.4706 4.094675 32.028692 -2.871232
2007-05-22 08:17:58 51°13.724 2°52.004 14.5162 4.09063 31.981875 -2.871232
2007-05-22 08:18:58 51°13.824 2°52.284 14.4838 4.091356 31.993251 -2.871232
2007-05-22 08:19:58 51°13.925 2°52.565 14.4831 4.089801 31.98545 -2.871232
2007-05-22 08:20:58 51°14.024 2°52.843 14.4625 4.087312 31.975273 -2.871232
2007-05-22 08:21:58 51°14.124 2°53.121 14.4776 4.079742 31.915707 -2.871232
2007-05-22 08:22:58 51°14.234 2°53.384 14.5478 4.078082 31.880383 -2.871232
2007-05-22 08:23:58 51°14.397 2°53.563 14.5514 4.037434 31.487278 -2.871232
2007-05-22 08:24:58 51°14.577 2°53.707 14.4951 4.039819 31.510137 -2.871232
2007-05-22 08:25:58 51°14.764 2°53.84 14.5033 4.054336 31.683452 -2.871232
2007-05-22 08:26:58 51°14.953 2°53.756 14.5572 4.026132 31.388345 -2.871232
2007-05-22 08:27:58 51°15.052 2°53.458 14.4821 4.035049 31.469379 -2.871232
2007-05-22 08:28:58 51°15.007 2°53.11 14.4066 4.066884 31.806421 -2.871232
2007-05-22 08:29:58 51°14.963 2°52.755 14.3625 4.079536 31.978088 -2.871232
2007-05-22 08:30:58 51°14.915 2°52.396 14.2959 4.085343 32.063651 -2.871232
2007-05-22 08:31:58 51°14.865 2°52.035 14.2849 4.090944 32.171654 -2.871232
2007-05-22 08:32:58 51°14.815 2°51.675 14.2646 4.09167 32.180941 -2.871232
2007-05-22 08:33:58 51°14.775 2°51.386 14.2617 4.091152 32.182231 -2.871232
2007-05-22 08:34:58 51°14.743 2°51.178 14.2474 4.091359 32.197197 -2.871232
2007-05-22 08:35:58 51°14.724 2°51.034 14.2415 4.093537 32.225822 -2.871232
2007-05-22 08:36:58 51°14.718 2°50.951 14.2414 4.09416 32.236409 -2.871232
2007-05-22 08:37:58 51°14.708 2°50.916 14.2328 4.094367 32.238963 -2.871232
2007-05-22 08:38:58 51°14.695 2°50.894 14.204 4.093123 32.231691 -2.871232
2007-05-22 08:39:58 51°14.682 2°50.873 14.2055 4.092604 32.243244 -2.871232
2007-05-22 08:40:58 51°14.669 2°50.85 14.1987 4.093227 32.249445 -2.871232
2007-05-22 08:41:58 51°14.654 2°50.826 14.1998 4.093538 32.256577 -2.871232
2007-05-22 08:42:58 51°14.639 2°50.803 14.2036 4.093745 32.2584 -2.871232
2007-05-22 08:43:58 51°14.617 2°50.766 14.2253 4.093849 32.25638 -2.871232
2007-05-22 08:44:58 51°14.587 2°50.689 14.2298 4.094678 32.238768 -2.871232
2007-05-22 08:45:58 51°14.565 2°50.617 14.2084 4.094367 32.245552 -2.871232
2007-05-22 08:46:58 51°14.547 2°50.536 14.1993 4.094056 32.260402 -2.871232
2007-05-22 08:47:58 51°14.555 2°50.437 14.2171 4.093641 32.256756 -2.871232
2007-05-22 08:48:58 51°14.598 2°50.373 14.2491 4.093745 32.237889 -2.871232
2007-05-22 08:49:58 51°14.646 2°50.404 14.2578 4.094678 32.225599 -2.871232
2007-05-22 08:50:58 51°14.63 2°50.464 14.2517 4.094989 32.221019 -2.871232
2007-05-22 08:51:58 51°14.57 2°50.46 14.2406 4.095093 32.22851 -2.871232
2007-05-22 08:52:58 51°14.505 2°50.396 14.2079 4.095093 32.241679 -2.871232
2007-05-22 08:53:58 51°14.453 2°50.302 14.1933 4.094782 32.267517 -2.871232
2007-05-22 08:54:58 51°14.396 2°50.22 14.1844 4.094056 32.267001 -2.871232
2007-05-22 08:55:58 51°14.34 2°50.135 14.1752 4.09416 32.273048 -2.871232
2007-05-22 08:56:58 51°14.295 2°50.051 14.1708 4.093849 32.279851 -2.871232
2007-05-22 08:57:58 51°14.266 2°49.969 14.1643 4.093642 32.282431 -2.871232
2007-05-22 08:58:58 51°14.246 2°49.889 14.1622 4.093849 32.290866 -2.871232
2007-05-22 08:59:58 51°14.231 2°49.809 14.1586 4.093849 32.29307 -2.871232
2007-05-22 09:00:58 51°14.217 2°49.728 14.1637 4.093849 32.293804 -2.871232
2007-05-22 09:01:58 51°14.204 2°49.647 14.1596 4.094264 32.298924 -2.871232
2007-05-22 09:02:58 51°14.193 2°49.564 14.1494 4.092501 32.286348 -2.871232
2007-05-22 09:03:58 51°14.183 2°49.481 14.1389 4.093435 32.301177 -2.871232
2007-05-22 09:04:58 51°14.173 2°49.399 14.1269 4.094368 32.321163 -2.871232
2007-05-22 09:05:58 51°14.163 2°49.315 14.1193 4.094265 32.32761 -2.871232
2007-05-22 09:06:58 51°14.155 2°49.232 14.1124 4.094369 32.335152 -2.871232
2007-05-22 09:07:58 51°14.146 2°49.147 14.1174 4.094472 32.339749 -2.871232
2007-05-22 09:08:58 51°14.138 2°49.063 14.1247 4.094576 32.334033 -2.871232
2007-05-22 09:09:58 51°14.129 2°48.978 14.129 4.094887 32.330883 -2.871232
2007-05-22 09:10:58 51°14.122 2°48.893 14.141 4.095198 32.326998 -2.871232
2007-05-22 09:11:58 51°14.115 2°48.809 14.1317 4.096027 32.329887 -2.871232
2007-05-22 09:12:58 51°14.108 2°48.726 14.1343 4.09665 32.339047 -2.871232
2007-05-22 09:13:58 51°14.101 2°48.642 14.1245 4.097376 32.35207 -2.871232
2007-05-22 09:14:58 51°14.098 2°48.564 14.1241 4.098309 32.361766 -2.871232
2007-05-22 09:15:58 51°14.097 2°48.501 14.1219 4.098828 32.367808 -2.871232
2007-05-22 09:16:58 51°14.097 2°48.445 14.1231 4.098931 32.369459 -2.871232
2007-05-22 09:17:58 51°14.1 2°48.392 14.1193 4.099035 32.37111 -2.871232
2007-05-22 09:18:58 51°14.107 2°48.342 14.1159 4.098931 32.373145 -2.871232
2007-05-22 09:19:58 51°14.124 2°48.293 14.1145 4.096857 32.357081 -2.871232
2007-05-22 09:20:58 51°14.178 2°48.193 14.1269 4.096028 32.34756 -2.871232
2007-05-22 09:21:58 51°14.272 2°48.036 14.1419 4.097376 32.344704 -2.871232
2007-05-22 09:22:58 51°14.393 2°47.847 14.1486 4.097998 32.336933 -2.871232
2007-05-22 09:23:58 51°14.532 2°47.635 14.138 4.101109 32.363587 -2.871232
2007-05-22 09:24:58 51°14.677 2°47.416 14.132 4.101835 32.384718 -2.871232
2007-05-22 09:25:58 51°14.822 2°47.194 14.1283 4.10225 32.389847 -2.871232
2007-05-22 09:26:58 51°14.967 2°46.977 14.1042 4.103183 32.390694 -2.871232
2007-05-22 09:27:58 51°15.114 2°46.765 14.0359 4.103184 32.441652 -2.871232
2007-05-22 09:28:58 51°15.254 2°46.56 14.0739 4.101214 32.456095 -2.871232
2007-05-22 09:29:58 51°15.339 2°46.42 14.0499 4.101939 32.436591 -2.871232
2007-05-22 09:30:58 51°15.401 2°46.356 14.0786 4.10194 32.455096 -2.871232
2007-05-22 09:31:58 51°15.436 2°46.347 14.1234 4.103806 32.436787 -2.871232
2007-05-22 09:32:58 51°15.441 2°46.368 14.0945 4.105258 32.434805 -2.871232
2007-05-22 09:33:58 51°15.425 2°46.397 14.1287 4.104532 32.445408 -2.871232
2007-05-22 09:34:58 51°15.412 2°46.42 14.1223 4.106813 32.430047 -2.871232
2007-05-22 09:35:58 51°15.39 2°46.467 14.0785 4.106606 32.442255 -2.871232
2007-05-22 09:36:58 51°15.351 2°46.498 14.0591 4.104117 32.450626 -2.871232
2007-05-22 09:37:58 51°15.302 2°46.519 14.0563 4.102769 32.455014 -2.871232
2007-05-22 09:38:58 51°15.239 2°46.541 14.0761 4.102147 32.452484 -2.871232
2007-05-22 09:39:58 51°15.183 2°46.579 14.0822 4.102665 32.439297 -2.871232
2007-05-22 09:40:58 51°15.139 2°46.613 14.0766 4.102665 32.436338 -2.871232
2007-05-22 09:41:58 51°15.101 2°46.64 14.07 4.102562 32.439122 -2.871232
2007-05-22 09:42:58 51°15.067 2°46.665 14.0589 4.102562 32.446521 -2.871232
2007-05-22 09:43:58 51°15.031 2°46.697 14.0594 4.102458 32.450787 -2.871232
2007-05-22 09:44:58 51°14.991 2°46.731 14.0835 4.102354 32.449872 -2.871232
2007-05-22 09:45:58 51°14.94 2°46.757 14.1113 4.102769 32.427641 -2.871232
2007-05-22 09:46:58 51°14.878 2°46.757 14.1174 4.103494 32.414094 -2.871232
2007-05-22 09:47:58 51°14.816 2°46.721 14.1175 4.103391 32.406537 -2.871232
2007-05-22 09:48:58 51°14.766 2°46.665 14.0981 4.103287 32.407099 -2.871232
2007-05-22 09:49:58 51°14.725 2°46.596 14.0997 4.102458 32.418986 -2.871232
2007-05-22 09:50:58 51°14.694 2°46.519 14.1182 4.102872 32.408611 -2.871232
2007-05-22 09:51:58 51°14.67 2°46.437 14.1263 4.104117 32.412195 -2.871232
2007-05-22 09:52:58 51°14.653 2°46.353 14.1053 4.104635 32.416764 -2.871232
2007-05-22 09:53:58 51°14.641 2°46.269 14.0924 4.104013 32.42679 -2.871232
2007-05-22 09:54:58 51°14.634 2°46.187 14.0782 4.103806 32.433829 -2.871232
2007-05-22 09:55:58 51°14.631 2°46.108 14.0755 4.103288 32.441827 -2.871232
2007-05-22 09:56:58 51°14.632 2°46.034 14.0793 4.103391 32.442002 -2.871232
2007-05-22 09:57:58 51°14.64 2°45.963 14.0692 4.103599 32.446051 -2.871232
2007-05-22 09:58:58 51°14.646 2°45.906 14.0778 4.103599 32.449751 -2.871232
2007-05-22 09:59:58 51°14.647 2°45.857 14.068 4.104428 32.452631 -2.871232
2007-05-22 10:00:58 51°14.646 2°45.812 14.0707 4.104428 32.457071 -2.871232
2007-05-22 10:01:58 51°14.685 2°45.753 14.0494 4.104843 32.463693 -2.871232
2007-05-22 10:02:58 51°14.745 2°45.834 14.0338 4.104532 32.48095 -2.871232
2007-05-22 10:03:58 51°14.742 2°46.053 14.083 4.103599 32.474192 -2.871232
2007-05-22 10:04:58 51°14.743 2°46.347 14.113 4.103806 32.432351 -2.871232
2007-05-22 10:05:58 51°14.739 2°46.663 14.1381 4.103598 32.404675 -2.871232
2007-05-22 10:06:58 51°14.733 2°46.979 14.1696 4.103494 32.39196 -2.871232
2007-05-22 10:07:58 51°14.729 2°47.292 14.1969 4.103079 32.351489 -2.871232
2007-05-22 10:08:58 51°14.727 2°47.614 14.2243 4.103389 32.335114 -2.871232
2007-05-22 10:09:58 51°14.722 2°47.935 14.2484 4.103182 32.306136 -2.871232
2007-05-22 10:10:58 51°14.722 2°48.256 14.2786 4.103285 32.292387 -2.871232
2007-05-22 10:11:58 51°14.727 2°48.576 14.3121 4.10401 32.262167 -2.871232
2007-05-22 10:12:58 51°14.731 2°48.896 14.3384 4.104529 32.249178 -2.871232
2007-05-22 10:13:58 51°14.736 2°49.213 14.3703 4.104736 32.218166 -2.871232
2007-05-22 10:14:58 51°14.74 2°49.53 14.3758 4.104424 32.189958 -2.871232
2007-05-22 10:15:58 51°14.746 2°49.848 14.3839 4.103594 32.187064 -2.871232
2007-05-22 10:16:58 51°14.751 2°50.167 14.3848 4.102142 32.16709 -2.871232
2007-05-22 10:17:58 51°14.739 2°50.486 14.3819 4.09955 32.139328 -2.871232
2007-05-22 10:18:58 51°14.715 2°50.8 14.4593 4.091668 32.041457 -2.871232
2007-05-22 10:19:58 51°14.719 2°51.115 14.4527 4.087623 31.975824 -2.871232
2007-05-22 10:20:58 51°14.723 2°51.432 14.4724 4.085342 31.952318 -2.871232
2007-05-22 10:21:58 51°14.725 2°51.753 14.4321 4.085238 31.958618 -2.871232
2007-05-22 10:22:59 51°14.729 2°52.081 14.3857 4.085446 31.978455 -2.871232
2007-05-22 10:23:58 51°14.732 2°52.4 14.3935 4.088143 32.043932 -2.871232
2007-05-22 10:24:58 51°14.736 2°52.725 14.4021 4.085239 31.996859 -2.871232
2007-05-22 10:25:58 51°14.735 2°53.049 14.4976 4.083164 31.954934 -2.871232
2007-05-22 10:26:58 51°14.741 2°53.359 14.5063 4.083682 31.904762 -2.871232
2007-05-22 10:27:58 51°14.738 2°53.652 14.5017 4.080882 31.881085 -2.871232
2007-05-22 10:28:58 51°14.7 2°53.942 14.5185 4.07943 31.873461 -2.871232
2007-05-22 10:29:58 51°14.616 2°54.213 14.5344 4.080986 31.874811 -2.871232
2007-05-22 10:30:58 51°14.528 2°54.5 14.5964 4.078911 31.838112 -2.871232
2007-05-22 10:31:58 51°14.44 2°54.799 14.6471 4.065222 31.656333 -2.871232
2007-05-22 10:32:58 51°14.342 2°55.089 14.7047 4.053712 31.528822 -2.871232
2007-05-22 10:33:59 51°14.213 2°55.331 14.7954 3.976467 30.804166 -2.871232
2007-05-22 10:34:58 51°14.054 2°55.494 14.8242 3.878297 29.895997 -2.871232
2007-05-22 10:35:59 51°13.881 2°55.629 14.863 3.853836 29.667799 -2.871232
2007-05-22 10:36:58 51°13.75 2°55.708 14.9347 3.806576 29.212127 -2.871232
2007-05-22 10:37:58 51°13.676 2°55.829 15.0372 3.711968 28.342376 -2.871232
2007-05-22 10:38:59 51°13.636 2°55.939 15.0759 3.656539 27.834718 -2.871232
2007-05-22 10:39:58 51°13.618 2°56.024 15.1228 3.600392 27.321079 -2.871232
2007-05-22 10:40:59 51°13.609 2°56.078 15.1808 3.54653 26.823889 -2.871232
2007-05-22 10:41:58 51°13.603 2°56.096 15.128 3.559063 26.921844 -2.871232
2007-05-22 10:42:58 51°13.602 2°56.099 15.1103 3.573667 27.061635 -2.871232
2007-05-22 10:43:58 51°13.602 2°56.099 15.1035 3.589722 27.212675 -2.871232
2007-05-22 10:44:58 51°13.602 2°56.1 15.1149 3.593659 27.243358 -2.871232
2007-05-22 10:45:58 51°13.602 2°56.099 15.1147 3.590965 27.219518 -2.871232
2007-05-22 10:46:58 51°13.603 2°56.1 15.1174 3.591276 27.220927 -2.871232
2007-05-22 10:47:59 51°13.603 2°56.1 15.1082 3.59138 27.222399 -2.871232
2007-05-22 10:48:58 51°13.602 2°56.1 15.0869 3.598009 27.281137 -2.871232
2007-05-22 10:49:59 51°13.602 2°56.1 15.0378 3.633851 27.606499 -2.871232
2007-05-22 10:50:58 51°13.603 2°56.102 15.0093 3.67757 28.006864 -2.871232
2007-05-22 10:51:59 51°13.603 2°56.102 14.9915 3.70057 28.222615 -2.871232
2007-05-22 10:52:58 51°13.603 2°56.102 14.9676 3.720775 28.407605 -2.871232
2007-05-22 10:53:58 51°13.603 2°56.102 14.9666 3.727095 28.470036 -2.871232
2007-05-22 10:54:59 51°13.603 2°56.102 14.9669 3.73238 28.519296 -2.871232
2007-05-22 10:55:58 51°13.606 2°56.102 14.9586 3.736317 28.554614 -2.871232
2007-05-22 10:56:59 51°13.602 2°56.102 14.9525 3.743571 28.618729 -2.871232
2007-05-22 10:57:58 51°13.601 2°56.1 14.9492 3.751549 28.692858 -2.871232
2007-05-22 10:58:59 51°13.603 2°56.101 14.9559 3.754865 28.722945 -2.871232
2007-05-22 10:59:58 51°13.604 2°56.101 14.951 3.743881 28.62518 -2.871232
2007-05-22 11:00:59 51°13.602 2°56.101 14.9479 3.741291 28.601912 -2.871232
2007-05-22 11:01:58 51°13.604 2°56.102 14.951 3.741809 28.61012 -2.871232
2007-05-22 11:02:58 51°13.603 2°56.101 14.9514 3.741913 28.610365 -2.871232
2007-05-22 11:03:59 51°13.603 2°56.101 14.9517 3.7444 28.628945 -2.871232
2007-05-22 11:04:58 51°13.605 2°56.103 14.9514 3.74585 28.641901 -2.871232
2007-05-22 11:05:59 51°13.604 2°56.102 14.9454 3.747819 28.659259 -2.871232
2007-05-22 11:06:58 51°13.605 2°56.102 14.9474 3.746161 28.650263 -2.871232
2007-05-22 11:07:58 51°13.603 2°56.1 14.9465 3.747612 28.661315 -2.871232
2007-05-22 11:08:58 51°13.603 2°56.101 14.9472 3.748337 28.666841 -2.871232
2007-05-22 11:09:58 51°13.602 2°56.1 14.9418 3.749995 28.681563 -2.871232
2007-05-22 11:10:59 51°13.602 2°56.099 14.9417 3.752793 28.707246 -2.871232
2007-05-22 11:11:59 51°13.603 2°56.1 14.9397 3.75642 28.738705 -2.871232
2007-05-22 11:12:59 51°13.603 2°56.1 14.9369 3.758699 28.760636 -2.871232
2007-05-22 11:13:58 51°13.603 2°56.1 14.9356 3.760875 28.780413 -2.871232
2007-05-22 11:14:59 51°13.602 2°56.1 14.9314 3.764917 28.818613 -2.871232
2007-05-22 11:15:58 51°13.602 2°56.099 14.9274 3.767922 28.846734 -2.871232
2007-05-22 11:16:59 51°13.602 2°56.1 14.9264 3.771756 28.879991 -2.871232
2007-05-22 11:17:58 51°13.602 2°56.1 14.9212 3.772896 28.892256 -2.871232
2007-05-22 11:18:59 51°13.602 2°56.1 14.9209 3.77559 28.917752 -2.871232
2007-05-22 11:19:59 51°13.602 2°56.1 14.9409 3.760875 28.783608 -2.871232
2007-05-22 11:20:59 51°13.602 2°56.1 14.9452 3.75186 28.699321 -2.871232
2007-05-22 11:21:59 51°13.602 2°56.1 14.9482 3.751964 28.695106 -2.871232
2007-05-22 11:22:58 51°13.603 2°56.1 14.9473 3.749062 28.671094 -2.871232
2007-05-22 11:23:58 51°13.602 2°56.101 14.9507 3.74927 28.670309 -2.871232
2007-05-22 11:24:58 51°13.602 2°56.101 14.9517 3.74958 28.669133 -2.871232
2007-05-22 11:25:58 51°13.602 2°56.102 14.9543 3.755072 28.718332 -2.871232
2007-05-22 11:26:58 51°13.602 2°56.102 14.9515 3.753207 28.699938 -2.871232
2007-05-22 11:27:59 51°13.602 2°56.101 14.9584 3.745125 28.633199 -2.871232
2007-05-22 11:28:59 51°13.602 2°56.101 14.9631 3.734556 28.537763 -2.871232
2007-05-22 11:29:59 51°13.602 2°56.101 14.9641 3.734141 28.532346 -2.871232
2007-05-22 11:30:59 51°13.602 2°56.102 14.9618 3.732691 28.520669 -2.871232
2007-05-22 11:31:59 51°13.602 2°56.101 14.9561 3.732691 28.5232 -2.871232
2007-05-22 11:32:59 51°13.602 2°56.1 14.9578 3.734038 28.535265 -2.871232
2007-05-22 11:33:59 51°13.602 2°56.099 14.9595 3.730515 28.504102 -2.871232
2007-05-22 11:34:59 51°13.601 2°56.099 14.9604 3.728753 28.488523 -2.871232
2007-05-22 11:35:59 51°13.602 2°56.099 14.9575 3.730515 28.504734 -2.871232
2007-05-22 11:36:59 51°13.602 2°56.099 14.9568 3.733312 28.529742 -2.871232
2007-05-22 11:37:59 51°13.602 2°56.098 14.9586 3.733002 28.525205 -2.871232
2007-05-22 11:38:59 51°13.602 2°56.099 14.9614 3.733002 28.525205 -2.871232
2007-05-22 11:39:59 51°13.603 2°56.099 14.9663 3.734348 28.534105 -2.871232
2007-05-22 11:40:59 51°13.602 2°56.099 14.9716 3.722122 28.425328 -2.871232
2007-05-22 11:41:59 51°13.602 2°56.098 14.9773 3.711657 28.330944 -2.871232
2007-05-22 11:42:59 51°13.602 2°56.099 14.9815 3.70658 28.286039 -2.871232
2007-05-22 11:43:59 51°13.602 2°56.098 14.9822 3.708549 28.300209 -2.871232
2007-05-22 11:44:59 51°13.602 2°56.099 14.983 3.707098 28.284158 -2.871232
2007-05-22 11:45:59 51°13.602 2°56.099 14.9852 3.705855 28.275506 -2.871232
2007-05-22 11:46:59 51°13.602 2°56.1 14.9923 3.706994 28.282026 -2.871232
2007-05-22 11:47:59 51°13.602 2°56.1 14.9849 3.708652 28.29607 -2.871232
2007-05-22 11:48:59 51°13.601 2°56.101 14.9787 3.711346 28.324542 -2.871232
2007-05-22 11:49:59 51°13.601 2°56.101 14.9834 3.714558 28.353647 -2.871232
2007-05-22 11:50:59 51°13.601 2°56.101 14.9762 3.717563 28.375342 -2.871232
2007-05-22 11:51:59 51°13.601 2°56.101 14.9842 3.718702 28.388148 -2.871232
2007-05-22 11:52:59 51°13.601 2°56.101 14.9874 3.716319 28.366061 -2.871232
2007-05-22 11:53:59 51°13.601 2°56.099 14.9876 3.712175 28.325915 -2.871232
2007-05-22 11:54:59 51°13.601 2°56.101 14.9957 3.70803 28.289549 -2.871232
2007-05-22 11:55:59 51°13.603 2°56.086 15.0419 3.708859 28.290928 -2.871232
2007-05-22 11:56:59 51°13.618 2°56.036 15.0522 3.658714 27.827837 -2.871232
2007-05-22 11:57:59 51°13.64 2°55.959 15.0276 3.6583 27.820648 -2.871232
2007-05-22 11:58:59 51°13.674 2°55.872 15.0129 3.678813 28.013032 -2.871232
2007-05-22 11:59:59 51°13.714 2°55.787 15.0098 3.711035 28.300578 -2.871232
2007-05-22 12:00:59 51°13.762 2°55.705 14.9686 3.710828 28.296944 -2.871232
2007-05-22 12:01:59 51°13.823 2°55.65 14.931 3.764295 28.790311 -2.871232
2007-05-22 12:02:59 51°13.889 2°55.633 14.9252 3.796834 29.08635 -2.871232
2007-05-22 12:03:59 51°13.943 2°55.66 14.9159 3.811757 29.219938 -2.871232
2007-05-22 12:04:59 51°13.957 2°55.657 14.9473 3.822328 29.314594 -2.871232
2007-05-22 12:05:59 51°13.992 2°55.56 14.9847 3.815902 29.222162 -2.871232
2007-05-22 12:06:59 51°14.096 2°55.443 15.0165 3.817145 29.211363 -2.871232
2007-05-22 12:07:59 51°14.224 2°55.328 14.948 3.828545 29.309017 -2.871232
2007-05-22 12:08:59 51°14.33 2°55.153 14.9645 3.861504 29.616644 -2.871232
2007-05-22 12:09:59 51°14.407 2°54.886 14.9465 3.881923 29.786268 -2.871232
2007-05-22 12:10:59 51°14.459 2°54.561 14.921 3.943496 30.325975 -2.871232
2007-05-22 12:11:59 51°14.5 2°54.21 14.8925 4.013166 30.945248 -2.871232
2007-05-22 12:12:59 51°14.541 2°53.859 14.8978 4.026127 31.070441 -2.871232
2007-05-22 12:13:59 51°14.561 2°53.506 14.7975 4.04645 31.280078 -2.871232
2007-05-22 12:14:59 51°14.57 2°53.153 14.7989 4.042718 31.29114 -2.871232
2007-05-22 12:15:59 51°14.572 2°52.79 14.802 4.033386 31.219703 -2.871232
2007-05-22 12:16:59 51°14.578 2°52.423 14.7448 4.038156 31.274113 -2.871232
2007-05-22 12:17:59 51°14.583 2°52.054 14.7583 4.039712 31.307113 -2.871232
2007-05-22 12:18:59 51°14.59 2°51.684 14.7446 4.044585 31.34571 -2.871232
2007-05-22 12:19:59 51°14.597 2°51.312 14.6989 4.047696 31.393626 -2.871232
2007-05-22 12:20:59 51°14.622 2°50.956 14.7024 4.049459 31.440501 -2.871232
2007-05-22 12:21:59 51°14.642 2°50.721 14.6482 4.047178 31.425682 -2.871232
2007-05-22 12:22:59 51°14.628 2°50.57 14.7582 4.045001 31.419497 -2.871232
2007-05-22 12:23:59 51°14.587 2°50.469 14.7725 4.037327 31.280923 -2.871232
2007-05-22 12:24:59 51°14.538 2°50.37 14.7593 4.037534 31.282015 -2.871232
2007-05-22 12:25:59 51°14.489 2°50.264 14.7446 4.04023 31.31369 -2.871232
2007-05-22 12:26:59 51°14.446 2°50.163 14.7279 4.045519 31.3741 -2.871232
2007-05-22 12:27:59 51°14.407 2°50.068 14.7089 4.050703 31.436494 -2.871232
2007-05-22 12:28:59 51°14.371 2°49.98 14.6796 4.053814 31.474674 -2.871232
2007-05-22 12:29:59 51°14.339 2°49.902 14.6621 4.055889 31.516609 -2.871232
2007-05-22 12:30:59 51°14.31 2°49.831 14.6589 4.057133 31.540106 -2.871232
2007-05-22 12:31:59 51°14.283 2°49.764 14.6379 4.058481 31.559569 -2.871232
2007-05-22 12:32:59 51°14.255 2°49.69 14.6262 4.060659 31.590487 -2.871232
2007-05-22 12:33:59 51°14.227 2°49.61 14.6052 4.062111 31.616551 -2.871232
2007-05-22 12:34:59 51°14.197 2°49.529 14.5772 4.0646 31.657326 -2.871232
2007-05-22 12:35:59 51°14.166 2°49.446 14.5701 4.066156 31.689334 -2.871232
2007-05-22 12:36:59 51°14.135 2°49.363 14.5558 4.067193 31.709031 -2.871232
2007-05-22 12:37:59 51°14.102 2°49.281 14.5547 4.067815 31.721569 -2.871232
2007-05-22 12:38:59 51°14.07 2°49.203 14.5511 4.06823 31.725889 -2.871232
2007-05-22 12:39:59 51°14.038 2°49.129 14.5507 4.068852 31.733439 -2.871232
2007-05-22 12:40:59 51°14.007 2°49.056 14.5537 4.069371 31.737235 -2.871232
2007-05-22 12:41:59 51°13.978 2°48.984 14.563 4.069889 31.738176 -2.871232
2007-05-22 12:42:59 51°13.95 2°48.911 14.5636 4.070719 31.739682 -2.871232
2007-05-22 12:43:59 51°13.925 2°48.836 14.5696 4.070926 31.740772 -2.871232
2007-05-22 12:44:59 51°13.901 2°48.757 14.5731 4.071548 31.741901 -2.871232
2007-05-22 12:45:59 51°13.878 2°48.677 14.5782 4.072378 31.744119 -2.871232
2007-05-22 12:46:59 51°13.857 2°48.596 14.576 4.073 31.748814 -2.871232
2007-05-22 12:47:59 51°13.84 2°48.514 14.5842 4.073518 31.75118 -2.871232
2007-05-22 12:48:59 51°13.827 2°48.436 14.5793 4.073726 31.752983 -2.871232
2007-05-22 12:49:59 51°13.819 2°48.353 14.5772 4.073518 31.75332 -2.871232
2007-05-22 12:50:59 51°13.815 2°48.274 14.5755 4.073207 31.752757 -2.871232
2007-05-22 12:51:59 51°13.809 2°48.21 14.5744 4.073726 31.757977 -2.871232
2007-05-22 12:52:59 51°13.801 2°48.158 14.5665 4.075178 31.771312 -2.871232
2007-05-22 12:53:59 51°13.791 2°48.115 14.5659 4.076007 31.782809 -2.871232
2007-05-22 12:54:59 51°13.781 2°48.074 14.5614 4.076422 31.789274 -2.871232
2007-05-22 12:55:59 51°13.795 2°48.028 14.5597 4.077252 31.791486 -2.871232
2007-05-22 12:56:59 51°13.828 2°48.057 14.5548 4.077977 31.797084 -2.871232
2007-05-22 12:57:59 51°13.866 2°48.179 14.5691 4.077977 31.78994 -2.871232
2007-05-22 12:58:58 51°13.921 2°48.351 14.5697 4.076422 31.772849 -2.871232
2007-05-22 12:59:59 51°13.981 2°48.579 14.5598 4.073415 31.748139 -2.871232
2007-05-22 13:00:58 51°14.038 2°48.812 14.5702 4.071444 31.738146 -2.871232
2007-05-22 13:01:59 51°14.098 2°49.051 14.6093 4.066985 31.680173 -2.871232
2007-05-22 13:02:59 51°14.165 2°49.324 14.6289 4.060452 31.599318 -2.871232
2007-05-22 13:03:58 51°14.237 2°49.606 14.652 4.050497 31.486126 -2.871232
2007-05-22 13:04:59 51°14.312 2°49.905 14.6465 4.043135 31.418115 -2.871232
2007-05-22 13:05:58 51°14.385 2°50.192 14.6814 4.037639 31.376847 -2.871232
2007-05-22 13:06:59 51°14.459 2°50.489 14.7094 4.0281 31.26971 -2.871232
2007-05-22 13:07:58 51°14.53 2°50.775 14.6815 4.010784 31.083077 -2.871232
2007-05-22 13:08:59 51°14.604 2°51.074 14.6944 4.007985 31.07906 -2.871232
2007-05-22 13:09:58 51°14.657 2°51.371 14.7001 4.005911 31.05767 -2.871232
2007-05-22 13:10:59 51°14.66 2°51.699 14.7778 4.007466 31.065544 -2.871232
2007-05-22 13:11:58 51°14.662 2°52.016 14.9474 3.996682 30.87163 -2.871232
2007-05-22 13:12:59 51°14.666 2°52.338 14.9926 4.002693 30.803938 -2.871232
2007-05-22 13:13:59 51°14.673 2°52.654 14.9644 4.024052 30.984372 -2.871232
2007-05-22 13:14:59 51°14.683 2°52.974 14.8997 4.011817 30.899317 -2.871232
2007-05-22 13:15:59 51°14.694 2°53.296 14.9045 4.005079 30.886083 -2.871232
2007-05-22 13:16:58 51°14.69 2°53.615 14.8882 3.994918 30.791276 -2.871232
2007-05-22 13:17:59 51°14.636 2°53.933 14.9265 3.987868 30.735539 -2.871232
2007-05-22 13:18:58 51°14.591 2°54.236 14.9464 3.987971 30.709112 -2.871232
2007-05-22 13:19:59 51°14.522 2°54.539 15.0439 4.002797 30.785696 -2.871232
2007-05-22 13:20:59 51°14.432 2°54.825 14.9882 3.996057 30.700732 -2.871232
2007-05-22 13:21:58 51°14.334 2°55.101 15.0499 3.99699 30.724374 -2.871232
2007-05-22 13:22:59 51°14.199 2°55.336 14.9783 3.948988 30.214676 -2.871232
2007-05-22 13:23:59 51°14.069 2°55.463 15.1425 3.874564 29.714226 -2.871232
2007-05-22 13:24:59 51°13.946 2°55.557 15.071 3.839839 29.25346 -2.871232
2007-05-22 13:25:59 51°13.845 2°55.631 15.0304 3.81331 29.145796 -2.871232
2007-05-22 13:26:59 51°13.767 2°55.693 15.3291 3.657677 27.741794 -2.871232
2007-05-22 13:27:59 51°13.71 2°55.783 15.3415 3.501269 26.291869 -2.871232
2007-05-22 13:28:59 51°13.663 2°55.893 15.197 3.451562 25.853369 -2.871232
2007-05-22 13:29:59 51°13.627 2°55.993 15.3045 3.599044 27.229129 -2.871232
2007-05-22 13:30:59 51°13.614 2°56.062 15.2088 3.32587 24.782415 -2.871232
2007-05-22 13:31:59 51°13.603 2°56.095 15.0853 3.594279 27.179579 -2.871232
2007-05-22 13:32:59 51°13.6 2°56.1 15.0127 3.657159 27.777248 -2.871232
2007-05-22 13:33:59 51°13.601 2°56.1 15.055 3.729996 28.454891 -2.871232
2007-05-22 13:34:59 51°13.602 2°56.099 15.0295 3.62691 27.504849 -2.871232